Aviation Digital Data Service (ADDS)

Output produced by METARs form (1508 UTC 20 March 2019)
found at http://www.aviationweather.gov/metar/data/
 
METAR text: WMKP 201500Z VRB03KT 9000 FEW025 SCT140 BKN270 29/26 Q1011 NOSIG
Conditions at: WMKP (PENANG/BAYAN LEP, MY) observed 1500 UTC 20 March 2019
Temperature: 29.0°C (84°F)
Dewpoint: 26.0°C (79°F) [RH = 84%]
Pressure (altimeter): 29.85 inches Hg (1011.0 mb)
Winds: variable direction winds at 3 MPH (3 knots; 1.5 m/s)
Visibility: 6 miles ( 9 km)
Ceiling: 27000 feet AGL
Clouds: few clouds at 2500 feet AGL
scattered clouds at 14000 feet AGL
broken clouds at 27000 feet AGL
Weather: no significant weather observed at this time

METAR text: WMKP 201430Z VRB03KT 9000 FEW025 SCT140 BKN270 29/25 Q1010 NOSIG
Conditions at: WMKP (PENANG/BAYAN LEP, MY) observed 1430 UTC 20 March 2019
Temperature: 29.0°C (84°F)
Dewpoint: 25.0°C (77°F) [RH = 79%]
Pressure (altimeter): 29.82 inches Hg (1010.0 mb)
Winds: variable direction winds at 3 MPH (3 knots; 1.5 m/s)
Visibility: 6 miles ( 9 km)
Ceiling: 27000 feet AGL
Clouds: few clouds at 2500 feet AGL
scattered clouds at 14000 feet AGL
broken clouds at 27000 feet AGL
Weather: no significant weather observed at this time

METAR text: WMKP 201400Z 28003KT 240V350 9000 FEW025 SCT140 BKN270 29/25 Q1010 NOSIG
Conditions at: WMKP (PENANG/BAYAN LEP, MY) observed 1400 UTC 20 March 2019
Temperature: 29.0°C (84°F)
Dewpoint: 25.0°C (77°F) [RH = 79%]
Pressure (altimeter): 29.82 inches Hg (1010.0 mb)
Winds: from the W (280 degrees) at 3 MPH (3 knots; 1.5 m/s)
Visibility: 6 miles ( 9 km)
Ceiling: 27000 feet AGL
Clouds: few clouds at 2500 feet AGL
scattered clouds at 14000 feet AGL
broken clouds at 27000 feet AGL
Weather: no significant weather observed at this time

METAR text: WMKP 201330Z 25003KT 170V320 9000 FEW025 SCT140 BKN270 29/25 Q1009 NOSIG
Conditions at: WMKP (PENANG/BAYAN LEP, MY) observed 1330 UTC 20 March 2019
Temperature: 29.0°C (84°F)
Dewpoint: 25.0°C (77°F) [RH = 79%]
Pressure (altimeter): 29.79 inches Hg (1009.0 mb)
Winds: from the WSW (250 degrees) at 3 MPH (3 knots; 1.5 m/s)
Visibility: 6 miles ( 9 km)
Ceiling: 27000 feet AGL
Clouds: few clouds at 2500 feet AGL
scattered clouds at 14000 feet AGL
broken clouds at 27000 feet AGL
Weather: no significant weather observed at this time

METAR text: WMKP 201300Z 25004KT 210V320 9000 FEW025 SCT140 BKN270 29/25 Q1008 NOSIG
Conditions at: WMKP (PENANG/BAYAN LEP, MY) observed 1300 UTC 20 March 2019
Temperature: 29.0°C (84°F)
Dewpoint: 25.0°C (77°F) [RH = 79%]
Pressure (altimeter): 29.76 inches Hg (1008.0 mb)
Winds: from the WSW (250 degrees) at 5 MPH (4 knots; 2.1 m/s)
Visibility: 6 miles ( 9 km)
Ceiling: 27000 feet AGL
Clouds: few clouds at 2500 feet AGL
scattered clouds at 14000 feet AGL
broken clouds at 27000 feet AGL
Weather: no significant weather observed at this time

METAR text: WMKP 201230Z 26005KT 210V330 9000 FEW025 SCT140 BKN270 30/25 Q1008 NOSIG
Conditions at: WMKP (PENANG/BAYAN LEP, MY) observed 1230 UTC 20 March 2019
Temperature: 30.0°C (86°F)
Dewpoint: 25.0°C (77°F) [RH = 75%]
Pressure (altimeter): 29.76 inches Hg (1008.0 mb)
Winds: from the W (260 degrees) at 6 MPH (5 knots; 2.6 m/s)
Visibility: 6 miles ( 9 km)
Ceiling: 27000 feet AGL
Clouds: few clouds at 2500 feet AGL
scattered clouds at 14000 feet AGL
broken clouds at 27000 feet AGL
Weather: no significant weather observed at this time

METAR text: WMKP 201200Z 22007KT 9000 FEW025 SCT140 BKN270 30/24 Q1008 NOSIG
Conditions at: WMKP (PENANG/BAYAN LEP, MY) observed 1200 UTC 20 March 2019
Temperature: 30.0°C (86°F)
Dewpoint: 24.0°C (75°F) [RH = 70%]
Pressure (altimeter): 29.76 inches Hg (1008.0 mb)
Winds: from the SW (220 degrees) at 8 MPH (7 knots; 3.6 m/s)
Visibility: 6 miles ( 9 km)
Ceiling: 27000 feet AGL
Clouds: few clouds at 2500 feet AGL
scattered clouds at 14000 feet AGL
broken clouds at 27000 feet AGL
Weather: no significant weather observed at this time

METAR text: WMKP 201130Z 24006KT 210V280 9000 FEW022 SCT140 BKN270 30/23 Q1007 NOSIG
Conditions at: WMKP (PENANG/BAYAN LEP, MY) observed 1130 UTC 20 March 2019
Temperature: 30.0°C (86°F)
Dewpoint: 23.0°C (73°F) [RH = 66%]
Pressure (altimeter): 29.73 inches Hg (1007.0 mb)
Winds: from the WSW (240 degrees) at 7 MPH (6 knots; 3.1 m/s)
Visibility: 6 miles ( 9 km)
Ceiling: 27000 feet AGL
Clouds: few clouds at 2200 feet AGL
scattered clouds at 14000 feet AGL
broken clouds at 27000 feet AGL
Weather: no significant weather observed at this time

METAR text: WMKP 201100Z 26004KT 210V300 9000 FEW020 SCT140 BKN270 31/23 Q1007 NOSIG
Conditions at: WMKP (PENANG/BAYAN LEP, MY) observed 1100 UTC 20 March 2019
Temperature: 31.0°C (88°F)
Dewpoint: 23.0°C (73°F) [RH = 63%]
Pressure (altimeter): 29.73 inches Hg (1007.0 mb)
Winds: from the W (260 degrees) at 5 MPH (4 knots; 2.1 m/s)
Visibility: 6 miles ( 9 km)
Ceiling: 27000 feet AGL
Clouds: few clouds at 2000 feet AGL
scattered clouds at 14000 feet AGL
broken clouds at 27000 feet AGL
Weather: no significant weather observed at this time

METAR text: WMKP 201030Z 23008KT 200V260 9000 FEW020 SCT140 BKN270 32/25 Q1007 NOSIG
Conditions at: WMKP (PENANG/BAYAN LEP, MY) observed 1030 UTC 20 March 2019
Temperature: 32.0°C (90°F)
Dewpoint: 25.0°C (77°F) [RH = 67%]
Pressure (altimeter): 29.73 inches Hg (1007.0 mb)
Winds: from the SW (230 degrees) at 9 MPH (8 knots; 4.1 m/s)
Visibility: 6 miles ( 9 km)
Ceiling: 27000 feet AGL
Clouds: few clouds at 2000 feet AGL
scattered clouds at 14000 feet AGL
broken clouds at 27000 feet AGL
Weather: no significant weather observed at this time

METAR text: WMKP 201000Z 23008KT 200V260 9000 FEW017CB SCT140 BKN270 32/25 Q1007 NOSIG
Conditions at: WMKP (PENANG/BAYAN LEP, MY) observed 1000 UTC 20 March 2019
Temperature: 32.0°C (90°F)
Dewpoint: 25.0°C (77°F) [RH = 67%]
Pressure (altimeter): 29.73 inches Hg (1007.0 mb)
Winds: from the SW (230 degrees) at 9 MPH (8 knots; 4.1 m/s)
Visibility: 6 miles ( 9 km)
Ceiling: 27000 feet AGL
Clouds: few clouds at 1700 feet AGL
scattered clouds at 14000 feet AGL
broken clouds at 27000 feet AGL
Weather: no significant weather observed at this time

METAR text: WMKP 200930Z 25007KT 190V290 9000 FEW017CB SCT140 BKN270 32/24 Q1007 NOSIG
Conditions at: WMKP (PENANG/BAYAN LEP, MY) observed 0930 UTC 20 March 2019
Temperature: 32.0°C (90°F)
Dewpoint: 24.0°C (75°F) [RH = 63%]
Pressure (altimeter): 29.73 inches Hg (1007.0 mb)
Winds: from the WSW (250 degrees) at 8 MPH (7 knots; 3.6 m/s)
Visibility: 6 miles ( 9 km)
Ceiling: 27000 feet AGL
Clouds: few clouds at 1700 feet AGL
scattered clouds at 14000 feet AGL
broken clouds at 27000 feet AGL
Weather: no significant weather observed at this time

METAR text: WMKP 200900Z 24009KT 200V270 9000 FEW017CB SCT140 BKN270 32/24 Q1007 NOSIG
Conditions at: WMKP (PENANG/BAYAN LEP, MY) observed 0900 UTC 20 March 2019
Temperature: 32.0°C (90°F)
Dewpoint: 24.0°C (75°F) [RH = 63%]
Pressure (altimeter): 29.73 inches Hg (1007.0 mb)
Winds: from the WSW (240 degrees) at 10 MPH (9 knots; 4.6 m/s)
Visibility: 6 miles ( 9 km)
Ceiling: 27000 feet AGL
Clouds: few clouds at 1700 feet AGL
scattered clouds at 14000 feet AGL
broken clouds at 27000 feet AGL
Weather: no significant weather observed at this time

METAR text: WMKP 200830Z 24010KT 210V290 8000 FEW017CB SCT140 BKN270 32/24 Q1007 NOSIG
Conditions at: WMKP (PENANG/BAYAN LEP, MY) observed 0830 UTC 20 March 2019
Temperature: 32.0°C (90°F)
Dewpoint: 24.0°C (75°F) [RH = 63%]
Pressure (altimeter): 29.73 inches Hg (1007.0 mb)
Winds: from the WSW (240 degrees) at 12 MPH (10 knots; 5.1 m/s)
Visibility: 5 miles ( 8 km)
Ceiling: 27000 feet AGL
Clouds: few clouds at 1700 feet AGL
scattered clouds at 14000 feet AGL
broken clouds at 27000 feet AGL
Weather: no significant weather observed at this time

METAR text: WMKP 200800Z 21012KT 180V240 8000 FEW017CB SCT140 BKN270 32/26 Q1008 NOSIG
Conditions at: WMKP (PENANG/BAYAN LEP, MY) observed 0800 UTC 20 March 2019
Temperature: 32.0°C (90°F)
Dewpoint: 26.0°C (79°F) [RH = 71%]
Pressure (altimeter): 29.76 inches Hg (1008.0 mb)
Winds: from the SSW (210 degrees) at 14 MPH (12 knots; 6.2 m/s)
Visibility: 5 miles ( 8 km)
Ceiling: 27000 feet AGL
Clouds: few clouds at 1700 feet AGL
scattered clouds at 14000 feet AGL
broken clouds at 27000 feet AGL
Weather: no significant weather observed at this time

METAR text: WMKP 200730Z 22012KT 180V250 9000 FEW017CB SCT140 BKN270 32/25 Q1008 NOSIG
Conditions at: WMKP (PENANG/BAYAN LEP, MY) observed 0730 UTC 20 March 2019
Temperature: 32.0°C (90°F)
Dewpoint: 25.0°C (77°F) [RH = 67%]
Pressure (altimeter): 29.76 inches Hg (1008.0 mb)
Winds: from the SW (220 degrees) at 14 MPH (12 knots; 6.2 m/s)
Visibility: 6 miles ( 9 km)
Ceiling: 27000 feet AGL
Clouds: few clouds at 1700 feet AGL
scattered clouds at 14000 feet AGL
broken clouds at 27000 feet AGL
Weather: no significant weather observed at this time

METAR text: WMKP 200700Z 22010KT 190V250 9000 FEW017CB SCT020 BKN270 33/25 Q1009 NOSIG
Conditions at: WMKP (PENANG/BAYAN LEP, MY) observed 0700 UTC 20 March 2019
Temperature: 33.0°C (91°F)
Dewpoint: 25.0°C (77°F) [RH = 63%]
Pressure (altimeter): 29.79 inches Hg (1009.0 mb)
Winds: from the SW (220 degrees) at 12 MPH (10 knots; 5.1 m/s)
Visibility: 6 miles ( 9 km)
Ceiling: 27000 feet AGL
Clouds: few clouds at 1700 feet AGL
scattered clouds at 2000 feet AGL
broken clouds at 27000 feet AGL
Weather: no significant weather observed at this time

METAR text: WMKP 200630Z 22010KT 180V250 9000 FEW017CB SCT140 BKN270 32/25 Q1009 NOSIG
Conditions at: WMKP (PENANG/BAYAN LEP, MY) observed 0630 UTC 20 March 2019
Temperature: 32.0°C (90°F)
Dewpoint: 25.0°C (77°F) [RH = 67%]
Pressure (altimeter): 29.79 inches Hg (1009.0 mb)
Winds: from the SW (220 degrees) at 12 MPH (10 knots; 5.1 m/s)
Visibility: 6 miles ( 9 km)
Ceiling: 27000 feet AGL
Clouds: few clouds at 1700 feet AGL
scattered clouds at 14000 feet AGL
broken clouds at 27000 feet AGL
Weather: no significant weather observed at this time

METAR text: WMKP 200600Z VRB04KT 9000 FEW017CB SCT140 BKN270 33/25 Q1009 NOSIG
Conditions at: WMKP (PENANG/BAYAN LEP, MY) observed 0600 UTC 20 March 2019
Temperature: 33.0°C (91°F)
Dewpoint: 25.0°C (77°F) [RH = 63%]
Pressure (altimeter): 29.79 inches Hg (1009.0 mb)
Winds: variable direction winds at 5 MPH (4 knots; 2.1 m/s)
Visibility: 6 miles ( 9 km)
Ceiling: 27000 feet AGL
Clouds: few clouds at 1700 feet AGL
scattered clouds at 14000 feet AGL
broken clouds at 27000 feet AGL
Weather: no significant weather observed at this time

METAR text: WMKP 200530Z 21007KT 150V260 9000 FEW017CB SCT140 BKN270 32/25 Q1010 NOSIG
Conditions at: WMKP (PENANG/BAYAN LEP, MY) observed 0530 UTC 20 March 2019
Temperature: 32.0°C (90°F)
Dewpoint: 25.0°C (77°F) [RH = 67%]
Pressure (altimeter): 29.82 inches Hg (1010.0 mb)
Winds: from the SSW (210 degrees) at 8 MPH (7 knots; 3.6 m/s)
Visibility: 6 miles ( 9 km)
Ceiling: 27000 feet AGL
Clouds: few clouds at 1700 feet AGL
scattered clouds at 14000 feet AGL
broken clouds at 27000 feet AGL
Weather: no significant weather observed at this time

METAR text: WMKP 200500Z 21008KT 170V260 9000 FEW017CB SCT140 BKN270 32/25 Q1011 NOSIG
Conditions at: WMKP (PENANG/BAYAN LEP, MY) observed 0500 UTC 20 March 2019
Temperature: 32.0°C (90°F)
Dewpoint: 25.0°C (77°F) [RH = 67%]
Pressure (altimeter): 29.85 inches Hg (1011.0 mb)
Winds: from the SSW (210 degrees) at 9 MPH (8 knots; 4.1 m/s)
Visibility: 6 miles ( 9 km)
Ceiling: 27000 feet AGL
Clouds: few clouds at 1700 feet AGL
scattered clouds at 14000 feet AGL
broken clouds at 27000 feet AGL
Weather: no significant weather observed at this time

METAR text: WMKP 200430Z 21007KT 160V250 8000 FEW020 SCT140 BKN270 31/25 Q1011 NOSIG
Conditions at: WMKP (PENANG/BAYAN LEP, MY) observed 0430 UTC 20 March 2019
Temperature: 31.0°C (88°F)
Dewpoint: 25.0°C (77°F) [RH = 71%]
Pressure (altimeter): 29.85 inches Hg (1011.0 mb)
Winds: from the SSW (210 degrees) at 8 MPH (7 knots; 3.6 m/s)
Visibility: 5 miles ( 8 km)
Ceiling: 27000 feet AGL
Clouds: few clouds at 2000 feet AGL
scattered clouds at 14000 feet AGL
broken clouds at 27000 feet AGL
Weather: no significant weather observed at this time

METAR text: WMKP 200400Z VRB03KT 7000 FEW020 SCT140 BKN270 30/25 Q1012 NOSIG
Conditions at: WMKP (PENANG/BAYAN LEP, MY) observed 0400 UTC 20 March 2019
Temperature: 30.0°C (86°F)
Dewpoint: 25.0°C (77°F) [RH = 75%]
Pressure (altimeter): 29.88 inches Hg (1012.0 mb)
Winds: variable direction winds at 3 MPH (3 knots; 1.5 m/s)
Visibility: 4 miles ( 7 km)
Ceiling: 27000 feet AGL
Clouds: few clouds at 2000 feet AGL
scattered clouds at 14000 feet AGL
broken clouds at 27000 feet AGL
Weather: no significant weather observed at this time

METAR text: WMKP 200330Z 23004KT 140V280 7000 FEW020 SCT140 BKN270 29/25 Q1012 NOSIG
Conditions at: WMKP (PENANG/BAYAN LEP, MY) observed 0330 UTC 20 March 2019
Temperature: 29.0°C (84°F)
Dewpoint: 25.0°C (77°F) [RH = 79%]
Pressure (altimeter): 29.88 inches Hg (1012.0 mb)
Winds: from the SW (230 degrees) at 5 MPH (4 knots; 2.1 m/s)
Visibility: 4 miles ( 7 km)
Ceiling: 27000 feet AGL
Clouds: few clouds at 2000 feet AGL
scattered clouds at 14000 feet AGL
broken clouds at 27000 feet AGL
Weather: no significant weather observed at this time

METAR text: WMKP 200300Z 22006KT 190V250 8000 FEW020 SCT140 BKN270 28/26 Q1012 NOSIG
Conditions at: WMKP (PENANG/BAYAN LEP, MY) observed 0300 UTC 20 March 2019
Temperature: 28.0°C (82°F)
Dewpoint: 26.0°C (79°F) [RH = 89%]
Pressure (altimeter): 29.88 inches Hg (1012.0 mb)
Winds: from the SW (220 degrees) at 7 MPH (6 knots; 3.1 m/s)
Visibility: 5 miles ( 8 km)
Ceiling: 27000 feet AGL
Clouds: few clouds at 2000 feet AGL
scattered clouds at 14000 feet AGL
broken clouds at 27000 feet AGL
Weather: no significant weather observed at this time

METAR text: WMKP 200230Z 20009KT 160V230 7000 -RA FEW020 SCT024 BKN270 28/25 Q1013 NOSIG
Conditions at: WMKP (PENANG/BAYAN LEP, MY) observed 0230 UTC 20 March 2019
Temperature: 28.0°C (82°F)
Dewpoint: 25.0°C (77°F) [RH = 84%]
Pressure (altimeter): 29.91 inches Hg (1013.0 mb)
Winds: from the SSW (200 degrees) at 10 MPH (9 knots; 4.6 m/s)
Visibility: 4 miles ( 7 km)
Ceiling: 27000 feet AGL
Clouds: few clouds at 2000 feet AGL
scattered clouds at 2400 feet AGL
broken clouds at 27000 feet AGL
Weather: -RA  (light rain)

METAR text: WMKP 200200Z 17006KT 140V230 7000 FEW020 SCT140 BKN270 29/24 Q1012 NOSIG
Conditions at: WMKP (PENANG/BAYAN LEP, MY) observed 0200 UTC 20 March 2019
Temperature: 29.0°C (84°F)
Dewpoint: 24.0°C (75°F) [RH = 74%]
Pressure (altimeter): 29.88 inches Hg (1012.0 mb)
Winds: from the S (170 degrees) at 7 MPH (6 knots; 3.1 m/s)
Visibility: 4 miles ( 7 km)
Ceiling: 27000 feet AGL
Clouds: few clouds at 2000 feet AGL
scattered clouds at 14000 feet AGL
broken clouds at 27000 feet AGL
Weather: no significant weather observed at this time

METAR text: WMKP 200130Z 19005KT 130V230 7000 FEW020 SCT140 BKN270 29/24 Q1012 NOSIG
Conditions at: WMKP (PENANG/BAYAN LEP, MY) observed 0130 UTC 20 March 2019
Temperature: 29.0°C (84°F)
Dewpoint: 24.0°C (75°F) [RH = 74%]
Pressure (altimeter): 29.88 inches Hg (1012.0 mb)
Winds: from the S (190 degrees) at 6 MPH (5 knots; 2.6 m/s)
Visibility: 4 miles ( 7 km)
Ceiling: 27000 feet AGL
Clouds: few clouds at 2000 feet AGL
scattered clouds at 14000 feet AGL
broken clouds at 27000 feet AGL
Weather: no significant weather observed at this time

METAR text: WMKP 200100Z 18003KT 140V230 7000 FEW020 SCT140 BKN270 29/24 Q1011 NOSIG
Conditions at: WMKP (PENANG/BAYAN LEP, MY) observed 0100 UTC 20 March 2019
Temperature: 29.0°C (84°F)
Dewpoint: 24.0°C (75°F) [RH = 74%]
Pressure (altimeter): 29.85 inches Hg (1011.0 mb)
Winds: from the S (180 degrees) at 3 MPH (3 knots; 1.5 m/s)
Visibility: 4 miles ( 7 km)
Ceiling: 27000 feet AGL
Clouds: few clouds at 2000 feet AGL
scattered clouds at 14000 feet AGL
broken clouds at 27000 feet AGL
Weather: no significant weather observed at this time

METAR text: WMKP 200030Z VRB01KT 7000 FEW020 SCT140 BKN270 28/25 Q1011 NOSIG
Conditions at: WMKP (PENANG/BAYAN LEP, MY) observed 0030 UTC 20 March 2019
Temperature: 28.0°C (82°F)
Dewpoint: 25.0°C (77°F) [RH = 84%]
Pressure (altimeter): 29.85 inches Hg (1011.0 mb)
Winds: variable direction winds at 1 MPH (1 knots; 0.5 m/s)
Visibility: 4 miles ( 7 km)
Ceiling: 27000 feet AGL
Clouds: few clouds at 2000 feet AGL
scattered clouds at 14000 feet AGL
broken clouds at 27000 feet AGL
Weather: no significant weather observed at this time

METAR text: WMKP 200000Z 00000KT 7000 FEW020 SCT140 BKN270 28/25 Q1010 NOSIG
Conditions at: WMKP (PENANG/BAYAN LEP, MY) observed 0000 UTC 20 March 2019
Temperature: 28.0°C (82°F)
Dewpoint: 25.0°C (77°F) [RH = 84%]
Pressure (altimeter): 29.82 inches Hg (1010.0 mb)
Winds: calm
Visibility: 4 miles ( 7 km)
Ceiling: 27000 feet AGL
Clouds: few clouds at 2000 feet AGL
scattered clouds at 14000 feet AGL
broken clouds at 27000 feet AGL
Weather: no significant weather observed at this time

METAR text: WMKP 192330Z 00000KT 7000 FEW017CB SCT140 BKN270 27/24 Q1010 NOSIG
Conditions at: WMKP (PENANG/BAYAN LEP, MY) observed 2330 UTC 19 March 2019
Temperature: 27.0°C (81°F)
Dewpoint: 24.0°C (75°F) [RH = 84%]
Pressure (altimeter): 29.82 inches Hg (1010.0 mb)
Winds: calm
Visibility: 4 miles ( 7 km)
Ceiling: 27000 feet AGL
Clouds: few clouds at 1700 feet AGL
scattered clouds at 14000 feet AGL
broken clouds at 27000 feet AGL
Weather: no significant weather observed at this time

METAR text: WMKP 192300Z VRB02KT 8000 FEW017CB SCT140 BKN270 27/25 Q1009 NOSIG
Conditions at: WMKP (PENANG/BAYAN LEP, MY) observed 2300 UTC 19 March 2019
Temperature: 27.0°C (81°F)
Dewpoint: 25.0°C (77°F) [RH = 89%]
Pressure (altimeter): 29.79 inches Hg (1009.0 mb)
Winds: variable direction winds at 2 MPH (2 knots; 1.0 m/s)
Visibility: 5 miles ( 8 km)
Ceiling: 27000 feet AGL
Clouds: few clouds at 1700 feet AGL
scattered clouds at 14000 feet AGL
broken clouds at 27000 feet AGL
Weather: no significant weather observed at this time

METAR text: WMKP 192230Z 06003KT 010V090 8000 TS FEW017CB SCT140 BKN270 27/25 Q1009 NOSIG
Conditions at: WMKP (PENANG/BAYAN LEP, MY) observed 2230 UTC 19 March 2019
Temperature: 27.0°C (81°F)
Dewpoint: 25.0°C (77°F) [RH = 89%]
Pressure (altimeter): 29.79 inches Hg (1009.0 mb)
Winds: from the ENE (60 degrees) at 3 MPH (3 knots; 1.5 m/s)
Visibility: 5 miles ( 8 km)
Ceiling: 27000 feet AGL
Clouds: few clouds at 1700 feet AGL
scattered clouds at 14000 feet AGL
broken clouds at 27000 feet AGL
Weather: TS  (thunderstorm)

METAR text: WMKP 192200Z 07004KT 8000 TS FEW017CB SCT140 BKN270 27/24 Q1008 NOSIG
Conditions at: WMKP (PENANG/BAYAN LEP, MY) observed 2200 UTC 19 March 2019
Temperature: 27.0°C (81°F)
Dewpoint: 24.0°C (75°F) [RH = 84%]
Pressure (altimeter): 29.76 inches Hg (1008.0 mb)
Winds: from the ENE (70 degrees) at 5 MPH (4 knots; 2.1 m/s)
Visibility: 5 miles ( 8 km)
Ceiling: 27000 feet AGL
Clouds: few clouds at 1700 feet AGL
scattered clouds at 14000 feet AGL
broken clouds at 27000 feet AGL
Weather: TS  (thunderstorm)

METAR text: WMKP 192130Z 09005KT 030V140 8000 TS FEW017CB SCT025 BKN270 27/24 Q1008 NOSIG
Conditions at: WMKP (PENANG/BAYAN LEP, MY) observed 2130 UTC 19 March 2019
Temperature: 27.0°C (81°F)
Dewpoint: 24.0°C (75°F) [RH = 84%]
Pressure (altimeter): 29.76 inches Hg (1008.0 mb)
Winds: from the E (90 degrees) at 6 MPH (5 knots; 2.6 m/s)
Visibility: 5 miles ( 8 km)
Ceiling: 27000 feet AGL
Clouds: few clouds at 1700 feet AGL
scattered clouds at 2500 feet AGL
broken clouds at 27000 feet AGL
Weather: TS  (thunderstorm)

METAR text: WMKP 192100Z 06005KT 8000 TS FEW017CB SCT025 BKN270 27/24 Q1008 NOSIG
Conditions at: WMKP (PENANG/BAYAN LEP, MY) observed 2100 UTC 19 March 2019
Temperature: 27.0°C (81°F)
Dewpoint: 24.0°C (75°F) [RH = 84%]
Pressure (altimeter): 29.76 inches Hg (1008.0 mb)
Winds: from the ENE (60 degrees) at 6 MPH (5 knots; 2.6 m/s)
Visibility: 5 miles ( 8 km)
Ceiling: 27000 feet AGL
Clouds: few clouds at 1700 feet AGL
scattered clouds at 2500 feet AGL
broken clouds at 27000 feet AGL
Weather: TS  (thunderstorm)

METAR text: WMKP 192030Z 05007KT 020V080 8000 TS FEW017CB SCT025 BKN270 27/24 Q1009 NOSIG
Conditions at: WMKP (PENANG/BAYAN LEP, MY) observed 2030 UTC 19 March 2019
Temperature: 27.0°C (81°F)
Dewpoint: 24.0°C (75°F) [RH = 84%]
Pressure (altimeter): 29.79 inches Hg (1009.0 mb)
Winds: from the NE (50 degrees) at 8 MPH (7 knots; 3.6 m/s)
Visibility: 5 miles ( 8 km)
Ceiling: 27000 feet AGL
Clouds: few clouds at 1700 feet AGL
scattered clouds at 2500 feet AGL
broken clouds at 27000 feet AGL
Weather: TS  (thunderstorm)

METAR text: WMKP 192000Z 04004KT 010V070 8000 TS FEW017CB SCT140 BKN270 28/25 Q1008 NOSIG
Conditions at: WMKP (PENANG/BAYAN LEP, MY) observed 2000 UTC 19 March 2019
Temperature: 28.0°C (82°F)
Dewpoint: 25.0°C (77°F) [RH = 84%]
Pressure (altimeter): 29.76 inches Hg (1008.0 mb)
Winds: from the NE (40 degrees) at 5 MPH (4 knots; 2.1 m/s)
Visibility: 5 miles ( 8 km)
Ceiling: 27000 feet AGL
Clouds: few clouds at 1700 feet AGL
scattered clouds at 14000 feet AGL
broken clouds at 27000 feet AGL
Weather: TS  (thunderstorm)

METAR text: WMKP 191930Z VRB03KT 8000 TS FEW017CB SCT140 BKN270 29/25 Q1009 NOSIG
Conditions at: WMKP (PENANG/BAYAN LEP, MY) observed 1930 UTC 19 March 2019
Temperature: 29.0°C (84°F)
Dewpoint: 25.0°C (77°F) [RH = 79%]
Pressure (altimeter): 29.79 inches Hg (1009.0 mb)
Winds: variable direction winds at 3 MPH (3 knots; 1.5 m/s)
Visibility: 5 miles ( 8 km)
Ceiling: 27000 feet AGL
Clouds: few clouds at 1700 feet AGL
scattered clouds at 14000 feet AGL
broken clouds at 27000 feet AGL
Weather: TS  (thunderstorm)

METAR text: WMKP 191900Z 00000KT 8000 TS FEW017CB SCT140 BKN270 29/25 Q1009 NOSIG
Conditions at: WMKP (PENANG/BAYAN LEP, MY) observed 1900 UTC 19 March 2019
Temperature: 29.0°C (84°F)
Dewpoint: 25.0°C (77°F) [RH = 79%]
Pressure (altimeter): 29.79 inches Hg (1009.0 mb)
Winds: calm
Visibility: 5 miles ( 8 km)
Ceiling: 27000 feet AGL
Clouds: few clouds at 1700 feet AGL
scattered clouds at 14000 feet AGL
broken clouds at 27000 feet AGL
Weather: TS  (thunderstorm)

METAR text: WMKP 191830Z 00000KT 8000 TS FEW017CB SCT140 BKN280 29/26 Q1009 NOSIG
Conditions at: WMKP (PENANG/BAYAN LEP, MY) observed 1830 UTC 19 March 2019
Temperature: 29.0°C (84°F)
Dewpoint: 26.0°C (79°F) [RH = 84%]
Pressure (altimeter): 29.79 inches Hg (1009.0 mb)
Winds: calm
Visibility: 5 miles ( 8 km)
Ceiling: 28000 feet AGL
Clouds: few clouds at 1700 feet AGL
scattered clouds at 14000 feet AGL
broken clouds at 28000 feet AGL
Weather: TS  (thunderstorm)

METAR text: WMKP 191800Z 00000KT 9000 FEW017CB SCT140 BKN270 29/25 Q1009 RETS NOSIG
Conditions at: WMKP (PENANG/BAYAN LEP, MY) observed 1800 UTC 19 March 2019
Temperature: 29.0°C (84°F)
Dewpoint: 25.0°C (77°F) [RH = 79%]
Pressure (altimeter): 29.79 inches Hg (1009.0 mb)
Winds: calm
Visibility: 6 miles ( 9 km)
Ceiling: 27000 feet AGL
Clouds: few clouds at 1700 feet AGL
scattered clouds at 14000 feet AGL
broken clouds at 27000 feet AGL
Weather: no significant weather observed at this time

METAR text: WMKP 191730Z VRB02KT 9000 TS FEW017CB SCT140 BKN270 29/26 Q1010 NOSIG
Conditions at: WMKP (PENANG/BAYAN LEP, MY) observed 1730 UTC 19 March 2019
Temperature: 29.0°C (84°F)
Dewpoint: 26.0°C (79°F) [RH = 84%]
Pressure (altimeter): 29.82 inches Hg (1010.0 mb)
Winds: variable direction winds at 2 MPH (2 knots; 1.0 m/s)
Visibility: 6 miles ( 9 km)
Ceiling: 27000 feet AGL
Clouds: few clouds at 1700 feet AGL
scattered clouds at 14000 feet AGL
broken clouds at 27000 feet AGL
Weather: TS  (thunderstorm)

METAR text: WMKP 191700Z 00000KT 9000 TS FEW017CB SCT140 BKN270 30/26 Q1010 NOSIG
Conditions at: WMKP (PENANG/BAYAN LEP, MY) observed 1700 UTC 19 March 2019
Temperature: 30.0°C (86°F)
Dewpoint: 26.0°C (79°F) [RH = 79%]
Pressure (altimeter): 29.82 inches Hg (1010.0 mb)
Winds: calm
Visibility: 6 miles ( 9 km)
Ceiling: 27000 feet AGL
Clouds: few clouds at 1700 feet AGL
scattered clouds at 14000 feet AGL
broken clouds at 27000 feet AGL
Weather: TS  (thunderstorm)

METAR text: WMKP 191630Z VRB03KT 9000 FEW025 SCT140 BKN270 30/26 Q1010 NOSIG
Conditions at: WMKP (PENANG/BAYAN LEP, MY) observed 1630 UTC 19 March 2019
Temperature: 30.0°C (86°F)
Dewpoint: 26.0°C (79°F) [RH = 79%]
Pressure (altimeter): 29.82 inches Hg (1010.0 mb)
Winds: variable direction winds at 3 MPH (3 knots; 1.5 m/s)
Visibility: 6 miles ( 9 km)
Ceiling: 27000 feet AGL
Clouds: few clouds at 2500 feet AGL
scattered clouds at 14000 feet AGL
broken clouds at 27000 feet AGL
Weather: no significant weather observed at this time

METAR text: WMKP 191600Z 27003KT 210V010 9000 FEW025 SCT140 BKN270 30/26 Q1010 NOSIG
Conditions at: WMKP (PENANG/BAYAN LEP, MY) observed 1600 UTC 19 March 2019
Temperature: 30.0°C (86°F)
Dewpoint: 26.0°C (79°F) [RH = 79%]
Pressure (altimeter): 29.82 inches Hg (1010.0 mb)
Winds: from the W (270 degrees) at 3 MPH (3 knots; 1.5 m/s)
Visibility: 6 miles ( 9 km)
Ceiling: 27000 feet AGL
Clouds: few clouds at 2500 feet AGL
scattered clouds at 14000 feet AGL
broken clouds at 27000 feet AGL
Weather: no significant weather observed at this time

METAR text: WMKP 191530Z 27004KT 210V010 9000 FEW025 SCT140 BKN280 30/25 Q1010 NOSIG
Conditions at: WMKP (PENANG/BAYAN LEP, MY) observed 1530 UTC 19 March 2019
Temperature: 30.0°C (86°F)
Dewpoint: 25.0°C (77°F) [RH = 75%]
Pressure (altimeter): 29.82 inches Hg (1010.0 mb)
Winds: from the W (270 degrees) at 5 MPH (4 knots; 2.1 m/s)
Visibility: 6 miles ( 9 km)
Ceiling: 28000 feet AGL
Clouds: few clouds at 2500 feet AGL
scattered clouds at 14000 feet AGL
broken clouds at 28000 feet AGL
Weather: no significant weather observed at this time

METAR text: WMKP 191500Z VRB02KT 8000 FEW025 SCT140 BKN280 30/26 Q1010 NOSIG
Conditions at: WMKP (PENANG/BAYAN LEP, MY) observed 1500 UTC 19 March 2019
Temperature: 30.0°C (86°F)
Dewpoint: 26.0°C (79°F) [RH = 79%]
Pressure (altimeter): 29.82 inches Hg (1010.0 mb)
Winds: variable direction winds at 2 MPH (2 knots; 1.0 m/s)
Visibility: 5 miles ( 8 km)
Ceiling: 28000 feet AGL
Clouds: few clouds at 2500 feet AGL
scattered clouds at 14000 feet AGL
broken clouds at 28000 feet AGL
Weather: no significant weather observed at this time

METAR text: WMKP 191430Z 25003KT 190V310 8000 FEW025 SCT140 BKN280 30/25 Q1010 NOSIG
Conditions at: WMKP (PENANG/BAYAN LEP, MY) observed 1430 UTC 19 March 2019
Temperature: 30.0°C (86°F)
Dewpoint: 25.0°C (77°F) [RH = 75%]
Pressure (altimeter): 29.82 inches Hg (1010.0 mb)
Winds: from the WSW (250 degrees) at 3 MPH (3 knots; 1.5 m/s)
Visibility: 5 miles ( 8 km)
Ceiling: 28000 feet AGL
Clouds: few clouds at 2500 feet AGL
scattered clouds at 14000 feet AGL
broken clouds at 28000 feet AGL
Weather: no significant weather observed at this time

METAR text: WMKP 191400Z VRB01KT 8000 FEW025 SCT140 BKN270 30/25 Q1009 NOSIG
Conditions at: WMKP (PENANG/BAYAN LEP, MY) observed 1400 UTC 19 March 2019
Temperature: 30.0°C (86°F)
Dewpoint: 25.0°C (77°F) [RH = 75%]
Pressure (altimeter): 29.79 inches Hg (1009.0 mb)
Winds: variable direction winds at 1 MPH (1 knots; 0.5 m/s)
Visibility: 5 miles ( 8 km)
Ceiling: 27000 feet AGL
Clouds: few clouds at 2500 feet AGL
scattered clouds at 14000 feet AGL
broken clouds at 27000 feet AGL
Weather: no significant weather observed at this time

METAR text: WMKP 191330Z 24003KT 8000 FEW025 BKN280 30/25 Q1008 NOSIG
Conditions at: WMKP (PENANG/BAYAN LEP, MY) observed 1330 UTC 19 March 2019
Temperature: 30.0°C (86°F)
Dewpoint: 25.0°C (77°F) [RH = 75%]
Pressure (altimeter): 29.76 inches Hg (1008.0 mb)
Winds: from the WSW (240 degrees) at 3 MPH (3 knots; 1.5 m/s)
Visibility: 5 miles ( 8 km)
Ceiling: 28000 feet AGL
Clouds: few clouds at 2500 feet AGL
broken clouds at 28000 feet AGL
Weather: no significant weather observed at this time

METAR text: WMKP 191300Z 24004KT 8000 FEW025 BKN280 30/25 Q1008 NOSIG
Conditions at: WMKP (PENANG/BAYAN LEP, MY) observed 1300 UTC 19 March 2019
Temperature: 30.0°C (86°F)
Dewpoint: 25.0°C (77°F) [RH = 75%]
Pressure (altimeter): 29.76 inches Hg (1008.0 mb)
Winds: from the WSW (240 degrees) at 5 MPH (4 knots; 2.1 m/s)
Visibility: 5 miles ( 8 km)
Ceiling: 28000 feet AGL
Clouds: few clouds at 2500 feet AGL
broken clouds at 28000 feet AGL
Weather: no significant weather observed at this time

METAR text: WMKP 191230Z 24003KT 210V270 8000 FEW025 BKN280 30/25 Q1007 NOSIG
Conditions at: WMKP (PENANG/BAYAN LEP, MY) observed 1230 UTC 19 March 2019
Temperature: 30.0°C (86°F)
Dewpoint: 25.0°C (77°F) [RH = 75%]
Pressure (altimeter): 29.73 inches Hg (1007.0 mb)
Winds: from the WSW (240 degrees) at 3 MPH (3 knots; 1.5 m/s)
Visibility: 5 miles ( 8 km)
Ceiling: 28000 feet AGL
Clouds: few clouds at 2500 feet AGL
broken clouds at 28000 feet AGL
Weather: no significant weather observed at this time

METAR text: WMKP 191200Z 24004KT 200V300 8000 FEW025 BKN270 30/25 Q1007 NOSIG
Conditions at: WMKP (PENANG/BAYAN LEP, MY) observed 1200 UTC 19 March 2019
Temperature: 30.0°C (86°F)
Dewpoint: 25.0°C (77°F) [RH = 75%]
Pressure (altimeter): 29.73 inches Hg (1007.0 mb)
Winds: from the WSW (240 degrees) at 5 MPH (4 knots; 2.1 m/s)
Visibility: 5 miles ( 8 km)
Ceiling: 27000 feet AGL
Clouds: few clouds at 2500 feet AGL
broken clouds at 27000 feet AGL
Weather: no significant weather observed at this time

METAR text: WMKP 191130Z 24006KT 210V290 8000 FEW020 BKN270 31/25 Q1006 NOSIG
Conditions at: WMKP (PENANG/BAYAN LEP, MY) observed 1130 UTC 19 March 2019
Temperature: 31.0°C (88°F)
Dewpoint: 25.0°C (77°F) [RH = 71%]
Pressure (altimeter): 29.70 inches Hg (1006.0 mb)
Winds: from the WSW (240 degrees) at 7 MPH (6 knots; 3.1 m/s)
Visibility: 5 miles ( 8 km)
Ceiling: 27000 feet AGL
Clouds: few clouds at 2000 feet AGL
broken clouds at 27000 feet AGL
Weather: no significant weather observed at this time

METAR text: WMKP 191100Z 24007KT 200V270 8000 FEW020 BKN280 31/24 Q1006 NOSIG
Conditions at: WMKP (PENANG/BAYAN LEP, MY) observed 1100 UTC 19 March 2019
Temperature: 31.0°C (88°F)
Dewpoint: 24.0°C (75°F) [RH = 66%]
Pressure (altimeter): 29.70 inches Hg (1006.0 mb)
Winds: from the WSW (240 degrees) at 8 MPH (7 knots; 3.6 m/s)
Visibility: 5 miles ( 8 km)
Ceiling: 28000 feet AGL
Clouds: few clouds at 2000 feet AGL
broken clouds at 28000 feet AGL
Weather: no significant weather observed at this time

METAR text: WMKP 191030Z VRB04KT 8000 FEW020 BKN280 32/25 Q1006 NOSIG
Conditions at: WMKP (PENANG/BAYAN LEP, MY) observed 1030 UTC 19 March 2019
Temperature: 32.0°C (90°F)
Dewpoint: 25.0°C (77°F) [RH = 67%]
Pressure (altimeter): 29.70 inches Hg (1006.0 mb)
Winds: variable direction winds at 5 MPH (4 knots; 2.1 m/s)
Visibility: 5 miles ( 8 km)
Ceiling: 28000 feet AGL
Clouds: few clouds at 2000 feet AGL
broken clouds at 28000 feet AGL
Weather: no significant weather observed at this time

METAR text: WMKP 191000Z 27008KT 210V350 8000 FEW020 BKN280 32/25 Q1006 NOSIG
Conditions at: WMKP (PENANG/BAYAN LEP, MY) observed 1000 UTC 19 March 2019
Temperature: 32.0°C (90°F)
Dewpoint: 25.0°C (77°F) [RH = 67%]
Pressure (altimeter): 29.70 inches Hg (1006.0 mb)
Winds: from the W (270 degrees) at 9 MPH (8 knots; 4.1 m/s)
Visibility: 5 miles ( 8 km)
Ceiling: 28000 feet AGL
Clouds: few clouds at 2000 feet AGL
broken clouds at 28000 feet AGL
Weather: no significant weather observed at this time

METAR text: WMKP 190930Z 27008KT 200V010 7000 FEW020 BKN280 32/25 Q1006 NOSIG
Conditions at: WMKP (PENANG/BAYAN LEP, MY) observed 0930 UTC 19 March 2019
Temperature: 32.0°C (90°F)
Dewpoint: 25.0°C (77°F) [RH = 67%]
Pressure (altimeter): 29.70 inches Hg (1006.0 mb)
Winds: from the W (270 degrees) at 9 MPH (8 knots; 4.1 m/s)
Visibility: 4 miles ( 7 km)
Ceiling: 28000 feet AGL
Clouds: few clouds at 2000 feet AGL
broken clouds at 28000 feet AGL
Weather: no significant weather observed at this time

METAR text: WMKP 190900Z 28008KT 230V340 9999 FEW020 BKN280 33/24 Q1006 NOSIG
Conditions at: WMKP (PENANG/BAYAN LEP, MY) observed 0900 UTC 19 March 2019
Temperature: 33.0°C (91°F)
Dewpoint: 24.0°C (75°F) [RH = 59%]
Pressure (altimeter): 29.70 inches Hg (1006.0 mb)
Winds: from the W (280 degrees) at 9 MPH (8 knots; 4.1 m/s)
Visibility: 6 or more miles (10+ km)
Ceiling: 28000 feet AGL
Clouds: few clouds at 2000 feet AGL
broken clouds at 28000 feet AGL
Weather: no significant weather observed at this time

METAR text: WMKP 190830Z 24013KT 9999 FEW020 BKN280 33/23 Q1006 NOSIG
Conditions at: WMKP (PENANG/BAYAN LEP, MY) observed 0830 UTC 19 March 2019
Temperature: 33.0°C (91°F)
Dewpoint: 23.0°C (73°F) [RH = 56%]
Pressure (altimeter): 29.70 inches Hg (1006.0 mb)
Winds: from the WSW (240 degrees) at 15 MPH (13 knots; 6.7 m/s)
Visibility: 6 or more miles (10+ km)
Ceiling: 28000 feet AGL
Clouds: few clouds at 2000 feet AGL
broken clouds at 28000 feet AGL
Weather: no significant weather observed at this time

METAR text: WMKP 190800Z 23013KT 9999 FEW020 BKN280 34/24 Q1007 NOSIG
Conditions at: WMKP (PENANG/BAYAN LEP, MY) observed 0800 UTC 19 March 2019
Temperature: 34.0°C (93°F)
Dewpoint: 24.0°C (75°F) [RH = 56%]
Pressure (altimeter): 29.73 inches Hg (1007.0 mb)
Winds: from the SW (230 degrees) at 15 MPH (13 knots; 6.7 m/s)
Visibility: 6 or more miles (10+ km)
Ceiling: 28000 feet AGL
Clouds: few clouds at 2000 feet AGL
broken clouds at 28000 feet AGL
Weather: no significant weather observed at this time

METAR text: WMKP 190730Z 23011KT 9999 FEW020 BKN280 35/23 Q1007 NOSIG
Conditions at: WMKP (PENANG/BAYAN LEP, MY) observed 0730 UTC 19 March 2019
Temperature: 35.0°C (95°F)
Dewpoint: 23.0°C (73°F) [RH = 50%]
Pressure (altimeter): 29.73 inches Hg (1007.0 mb)
Winds: from the SW (230 degrees) at 13 MPH (11 knots; 5.7 m/s)
Visibility: 6 or more miles (10+ km)
Ceiling: 28000 feet AGL
Clouds: few clouds at 2000 feet AGL
broken clouds at 28000 feet AGL
Weather: no significant weather observed at this time

METAR text: WMKP 190700Z 21009KT 170V250 9999 FEW020 BKN280 35/23 Q1007 NOSIG
Conditions at: WMKP (PENANG/BAYAN LEP, MY) observed 0700 UTC 19 March 2019
Temperature: 35.0°C (95°F)
Dewpoint: 23.0°C (73°F) [RH = 50%]
Pressure (altimeter): 29.73 inches Hg (1007.0 mb)
Winds: from the SSW (210 degrees) at 10 MPH (9 knots; 4.6 m/s)
Visibility: 6 or more miles (10+ km)
Ceiling: 28000 feet AGL
Clouds: few clouds at 2000 feet AGL
broken clouds at 28000 feet AGL
Weather: no significant weather observed at this time

METAR text: WMKP 190630Z 20007KT 140V240 9999 FEW020 BKN280 35/23 Q1008 NOSIG
Conditions at: WMKP (PENANG/BAYAN LEP, MY) observed 0630 UTC 19 March 2019
Temperature: 35.0°C (95°F)
Dewpoint: 23.0°C (73°F) [RH = 50%]
Pressure (altimeter): 29.76 inches Hg (1008.0 mb)
Winds: from the SSW (200 degrees) at 8 MPH (7 knots; 3.6 m/s)
Visibility: 6 or more miles (10+ km)
Ceiling: 28000 feet AGL
Clouds: few clouds at 2000 feet AGL
broken clouds at 28000 feet AGL
Weather: no significant weather observed at this time

METAR text: WMKP 190600Z 21009KT 180V240 8000 FEW020 BKN280 35/24 Q1009 NOSIG
Conditions at: WMKP (PENANG/BAYAN LEP, MY) observed 0600 UTC 19 March 2019
Temperature: 35.0°C (95°F)
Dewpoint: 24.0°C (75°F) [RH = 53%]
Pressure (altimeter): 29.79 inches Hg (1009.0 mb)
Winds: from the SSW (210 degrees) at 10 MPH (9 knots; 4.6 m/s)
Visibility: 5 miles ( 8 km)
Ceiling: 28000 feet AGL
Clouds: few clouds at 2000 feet AGL
broken clouds at 28000 feet AGL
Weather: no significant weather observed at this time

METAR text: WMKP 190530Z 21008KT 160V250 8000 FEW020 BKN280 34/24 Q1010 NOSIG
Conditions at: WMKP (PENANG/BAYAN LEP, MY) observed 0530 UTC 19 March 2019
Temperature: 34.0°C (93°F)
Dewpoint: 24.0°C (75°F) [RH = 56%]
Pressure (altimeter): 29.82 inches Hg (1010.0 mb)
Winds: from the SSW (210 degrees) at 9 MPH (8 knots; 4.1 m/s)
Visibility: 5 miles ( 8 km)
Ceiling: 28000 feet AGL
Clouds: few clouds at 2000 feet AGL
broken clouds at 28000 feet AGL
Weather: no significant weather observed at this time

METAR text: WMKP 190500Z 21008KT 160V250 8000 FEW020 BKN280 35/23 Q1011 NOSIG
Conditions at: WMKP (PENANG/BAYAN LEP, MY) observed 0500 UTC 19 March 2019
Temperature: 35.0°C (95°F)
Dewpoint: 23.0°C (73°F) [RH = 50%]
Pressure (altimeter): 29.85 inches Hg (1011.0 mb)
Winds: from the SSW (210 degrees) at 9 MPH (8 knots; 4.1 m/s)
Visibility: 5 miles ( 8 km)
Ceiling: 28000 feet AGL
Clouds: few clouds at 2000 feet AGL
broken clouds at 28000 feet AGL
Weather: no significant weather observed at this time

METAR text: WMKP 190430Z 22008KT 160V280 8000 FEW020 BKN280 34/23 Q1011 NOSIG
Conditions at: WMKP (PENANG/BAYAN LEP, MY) observed 0430 UTC 19 March 2019
Temperature: 34.0°C (93°F)
Dewpoint: 23.0°C (73°F) [RH = 53%]
Pressure (altimeter): 29.85 inches Hg (1011.0 mb)
Winds: from the SW (220 degrees) at 9 MPH (8 knots; 4.1 m/s)
Visibility: 5 miles ( 8 km)
Ceiling: 28000 feet AGL
Clouds: few clouds at 2000 feet AGL
broken clouds at 28000 feet AGL
Weather: no significant weather observed at this time

METAR text: WMKP 190400Z VRB04KT 8000 FEW020 BKN280 34/23 Q1012 NOSIG
Conditions at: WMKP (PENANG/BAYAN LEP, MY) observed 0400 UTC 19 March 2019
Temperature: 34.0°C (93°F)
Dewpoint: 23.0°C (73°F) [RH = 53%]
Pressure (altimeter): 29.88 inches Hg (1012.0 mb)
Winds: variable direction winds at 5 MPH (4 knots; 2.1 m/s)
Visibility: 5 miles ( 8 km)
Ceiling: 28000 feet AGL
Clouds: few clouds at 2000 feet AGL
broken clouds at 28000 feet AGL
Weather: no significant weather observed at this time

METAR text: WMKP 190330Z 08007KT 020V120 8000 FEW020 BKN280 34/23 Q1012 NOSIG
Conditions at: WMKP (PENANG/BAYAN LEP, MY) observed 0330 UTC 19 March 2019
Temperature: 34.0°C (93°F)
Dewpoint: 23.0°C (73°F) [RH = 53%]
Pressure (altimeter): 29.88 inches Hg (1012.0 mb)
Winds: from the E (80 degrees) at 8 MPH (7 knots; 3.6 m/s)
Visibility: 5 miles ( 8 km)
Ceiling: 28000 feet AGL
Clouds: few clouds at 2000 feet AGL
broken clouds at 28000 feet AGL
Weather: no significant weather observed at this time

Forecast for: WMKP (PENANG/BAYAN LEP, MY)
Text: TAF WMKP 201100Z 2012/2112 VRB03KT 9000 FEW025 SCT140 BKN270
Forecast period: 1200 UTC 20 March 2019 to 0400 UTC 21 March 2019
Forecast type: FROM: standard forecast or significant change
Winds: variable direction winds at 3 MPH (3 knots; 1.5 m/s)
Visibility: 6 miles (9 km)
Ceiling: 27000 feet AGL
Clouds: few clouds at 2500 feet AGL
scattered clouds at 14000 feet AGL
broken clouds at 27000 feet AGL
Weather: no significant weather forecast for this period
Text: TEMPO 2022/2102 6000 -TSRA FEW017CB
Forecast period: 2200 UTC 20 March 2019 to 0200 UTC 21 March 2019
Forecast type: TEMPORARY: The following changes expected for less than half the time period
Visibility: 4 miles (6 km)
Ceiling: at least 12,000 feet AGL
Clouds: few clouds at 1700 feet AGL
Weather: -TSRA  (light rain associated with thunderstorm(s))
Text: BECMG 2104/2106 23010KT FEW020
Forecast period: 0400 to 1200 UTC 21 March 2019
Forecast type: BECOMING: Conditions expected to become as follows by 0600 UTC 21 March 2019
Winds: from the SW (230 degrees) at 12 MPH (10 knots; 5.1 m/s)
Visibility: 6 miles (9 km)
Ceiling: at least 12,000 feet AGL
Clouds: few clouds at 2000 feet AGL
Weather: no significant weather forecast for this period